sensor_id;sensor_type;location;lat;lon;timestamp;P1;durP1;ratioP1;P2;durP2;ratioP2
76894;SDS011;65855;42.030;13.078;2024-02-16T00:02:17;12.10;;;4.55;;
76894;SDS011;65855;42.030;13.078;2024-02-16T00:04:43;5.18;;;2.65;;
76894;SDS011;65855;42.030;13.078;2024-02-16T00:07:09;4.85;;;1.75;;
76894;SDS011;65855;42.030;13.078;2024-02-16T00:09:34;5.47;;;2.95;;
76894;SDS011;65855;42.030;13.078;2024-02-16T00:12:00;1.92;;;1.08;;
76894;SDS011;65855;42.030;13.078;2024-02-16T00:14:25;1.77;;;1.00;;
76894;SDS011;65855;42.030;13.078;2024-02-16T00:16:50;4.93;;;1.50;;
76894;SDS011;65855;42.030;13.078;2024-02-16T00:19:16;2.20;;;1.17;;
76894;SDS011;65855;42.030;13.078;2024-02-16T00:21:41;3.38;;;1.45;;
76894;SDS011;65855;42.030;13.078;2024-02-16T00:24:07;3.60;;;1.45;;
76894;SDS011;65855;42.030;13.078;2024-02-16T00:26:33;4.18;;;2.47;;
76894;SDS011;65855;42.030;13.078;2024-02-16T00:28:58;5.55;;;1.50;;
76894;SDS011;65855;42.030;13.078;2024-02-16T00:31:24;3.85;;;2.08;;
76894;SDS011;65855;42.030;13.078;2024-02-16T00:33:49;3.25;;;1.73;;
76894;SDS011;65855;42.030;13.078;2024-02-16T00:36:15;4.18;;;2.25;;
76894;SDS011;65855;42.030;13.078;2024-02-16T00:38:40;2.33;;;1.38;;
76894;SDS011;65855;42.030;13.078;2024-02-16T00:41:05;5.82;;;2.38;;
76894;SDS011;65855;42.030;13.078;2024-02-16T00:43:32;1.58;;;1.00;;
76894;SDS011;65855;42.030;13.078;2024-02-16T00:45:57;2.95;;;1.95;;
76894;SDS011;65855;42.030;13.078;2024-02-16T00:48:23;4.38;;;1.60;;
76894;SDS011;65855;42.030;13.078;2024-02-16T00:50:49;8.68;;;2.47;;
76894;SDS011;65855;42.030;13.078;2024-02-16T00:53:14;2.33;;;1.92;;
76894;SDS011;65855;42.030;13.078;2024-02-16T00:55:40;2.85;;;1.48;;
76894;SDS011;65855;42.030;13.078;2024-02-16T00:58:06;5.97;;;2.13;;
76894;SDS011;65855;42.030;13.078;2024-02-16T01:00:32;8.32;;;3.13;;
76894;SDS011;65855;42.030;13.078;2024-02-16T01:02:57;5.70;;;2.55;;
76894;SDS011;65855;42.030;13.078;2024-02-16T01:05:23;5.10;;;2.42;;
76894;SDS011;65855;42.030;13.078;2024-02-16T01:07:49;6.38;;;3.13;;
76894;SDS011;65855;42.030;13.078;2024-02-16T01:10:14;6.22;;;2.55;;
76894;SDS011;65855;42.030;13.078;2024-02-16T01:12:39;6.93;;;3.47;;
76894;SDS011;65855;42.030;13.078;2024-02-16T01:15:05;4.85;;;2.13;;
76894;SDS011;65855;42.030;13.078;2024-02-16T01:17:31;6.38;;;1.83;;
76894;SDS011;65855;42.030;13.078;2024-02-16T01:19:57;8.80;;;2.20;;
76894;SDS011;65855;42.030;13.078;2024-02-16T01:22:23;4.80;;;1.92;;
76894;SDS011;65855;42.030;13.078;2024-02-16T01:24:49;3.45;;;1.42;;
76894;SDS011;65855;42.030;13.078;2024-02-16T01:27:15;3.33;;;1.92;;
76894;SDS011;65855;42.030;13.078;2024-02-16T01:29:41;2.05;;;1.10;;
76894;SDS011;65855;42.030;13.078;2024-02-16T01:32:06;1.88;;;1.60;;
76894;SDS011;65855;42.030;13.078;2024-02-16T01:34:33;12.85;;;2.20;;
76894;SDS011;65855;42.030;13.078;2024-02-16T01:36:58;2.63;;;1.05;;
76894;SDS011;65855;42.030;13.078;2024-02-16T01:39:24;3.10;;;1.20;;
76894;SDS011;65855;42.030;13.078;2024-02-16T01:41:50;1.90;;;1.55;;
76894;SDS011;65855;42.030;13.078;2024-02-16T01:44:15;2.78;;;1.90;;
76894;SDS011;65855;42.030;13.078;2024-02-16T01:46:42;1.75;;;1.08;;
76894;SDS011;65855;42.030;13.078;2024-02-16T01:49:07;2.97;;;1.42;;
76894;SDS011;65855;42.030;13.078;2024-02-16T01:51:33;1.52;;;0.85;;
76894;SDS011;65855;42.030;13.078;2024-02-16T01:54:00;2.00;;;1.35;;
76894;SDS011;65855;42.030;13.078;2024-02-16T01:56:26;4.30;;;1.42;;
76894;SDS011;65855;42.030;13.078;2024-02-16T01:58:52;3.15;;;1.77;;
76894;SDS011;65855;42.030;13.078;2024-02-16T02:01:17;1.67;;;1.05;;
76894;SDS011;65855;42.030;13.078;2024-02-16T02:03:43;2.05;;;1.23;;
76894;SDS011;65855;42.030;13.078;2024-02-16T02:06:08;1.52;;;0.85;;
76894;SDS011;65855;42.030;13.078;2024-02-16T02:08:34;2.55;;;1.45;;
76894;SDS011;65855;42.030;13.078;2024-02-16T02:10:59;3.88;;;2.38;;
76894;SDS011;65855;42.030;13.078;2024-02-16T02:13:25;4.72;;;1.83;;
76894;SDS011;65855;42.030;13.078;2024-02-16T02:15:50;3.65;;;1.13;;
76894;SDS011;65855;42.030;13.078;2024-02-16T02:18:15;3.20;;;1.33;;
76894;SDS011;65855;42.030;13.078;2024-02-16T02:20:41;4.03;;;1.52;;
76894;SDS011;65855;42.030;13.078;2024-02-16T02:23:07;2.28;;;1.10;;
76894;SDS011;65855;42.030;13.078;2024-02-16T02:25:33;2.70;;;1.85;;
76894;SDS011;65855;42.030;13.078;2024-02-16T02:28:00;5.20;;;2.13;;
76894;SDS011;65855;42.030;13.078;2024-02-16T02:30:27;5.10;;;2.22;;
76894;SDS011;65855;42.030;13.078;2024-02-16T02:32:53;4.75;;;2.85;;
76894;SDS011;65855;42.030;13.078;2024-02-16T02:35:19;7.25;;;1.90;;
76894;SDS011;65855;42.030;13.078;2024-02-16T02:37:44;6.65;;;2.20;;
76894;SDS011;65855;42.030;13.078;2024-02-16T02:40:10;4.50;;;1.90;;
76894;SDS011;65855;42.030;13.078;2024-02-16T02:42:35;3.95;;;1.98;;
76894;SDS011;65855;42.030;13.078;2024-02-16T02:45:01;6.10;;;2.58;;
76894;SDS011;65855;42.030;13.078;2024-02-16T02:47:27;3.78;;;1.38;;
76894;SDS011;65855;42.030;13.078;2024-02-16T02:49:53;3.92;;;1.98;;
76894;SDS011;65855;42.030;13.078;2024-02-16T02:52:19;2.80;;;1.40;;
76894;SDS011;65855;42.030;13.078;2024-02-16T02:54:45;9.25;;;2.10;;
76894;SDS011;65855;42.030;13.078;2024-02-16T02:57:11;2.25;;;1.08;;
76894;SDS011;65855;42.030;13.078;2024-02-16T02:59:37;3.97;;;1.40;;
76894;SDS011;65855;42.030;13.078;2024-02-16T03:02:02;3.10;;;1.50;;
76894;SDS011;65855;42.030;13.078;2024-02-16T03:04:28;9.48;;;3.80;;
76894;SDS011;65855;42.030;13.078;2024-02-16T03:06:53;12.25;;;6.63;;
76894;SDS011;65855;42.030;13.078;2024-02-16T03:09:19;13.63;;;4.85;;
76894;SDS011;65855;42.030;13.078;2024-02-16T03:11:44;10.45;;;4.07;;
76894;SDS011;65855;42.030;13.078;2024-02-16T03:14:10;2.35;;;1.45;;
76894;SDS011;65855;42.030;13.078;2024-02-16T03:16:35;5.32;;;1.80;;
76894;SDS011;65855;42.030;13.078;2024-02-16T03:19:01;1.65;;;0.88;;
76894;SDS011;65855;42.030;13.078;2024-02-16T03:21:28;3.25;;;2.08;;
76894;SDS011;65855;42.030;13.078;2024-02-16T03:23:53;3.00;;;1.50;;
76894;SDS011;65855;42.030;13.078;2024-02-16T03:26:19;4.00;;;1.92;;
76894;SDS011;65855;42.030;13.078;2024-02-16T03:28:45;3.83;;;3.38;;
76894;SDS011;65855;42.030;13.078;2024-02-16T03:31:16;2.10;;;1.20;;
76894;SDS011;65855;42.030;13.078;2024-02-16T03:33:46;4.63;;;2.15;;
76894;SDS011;65855;42.030;13.078;2024-02-16T03:36:12;3.80;;;1.17;;
76894;SDS011;65855;42.030;13.078;2024-02-16T03:38:42;3.72;;;1.88;;
76894;SDS011;65855;42.030;13.078;2024-02-16T03:41:14;5.45;;;2.75;;
76894;SDS011;65855;42.030;13.078;2024-02-16T03:43:42;3.92;;;2.58;;
76894;SDS011;65855;42.030;13.078;2024-02-16T03:46:08;4.60;;;2.15;;
76894;SDS011;65855;42.030;13.078;2024-02-16T03:48:33;2.42;;;1.15;;
76894;SDS011;65855;42.030;13.078;2024-02-16T03:50:59;2.60;;;1.38;;
76894;SDS011;65855;42.030;13.078;2024-02-16T03:53:25;3.17;;;1.98;;
76894;SDS011;65855;42.030;13.078;2024-02-16T03:55:51;3.63;;;1.75;;
76894;SDS011;65855;42.030;13.078;2024-02-16T03:58:16;4.43;;;1.95;;
76894;SDS011;65855;42.030;13.078;2024-02-16T04:00:42;2.97;;;1.30;;
76894;SDS011;65855;42.030;13.078;2024-02-16T04:03:07;2.55;;;0.88;;
76894;SDS011;65855;42.030;13.078;2024-02-16T04:05:34;3.50;;;1.83;;
76894;SDS011;65855;42.030;13.078;2024-02-16T04:08:00;2.75;;;1.35;;
76894;SDS011;65855;42.030;13.078;2024-02-16T04:10:27;3.67;;;1.52;;
76894;SDS011;65855;42.030;13.078;2024-02-16T04:12:55;3.42;;;1.65;;
76894;SDS011;65855;42.030;13.078;2024-02-16T04:15:21;3.53;;;1.70;;
76894;SDS011;65855;42.030;13.078;2024-02-16T04:17:47;2.90;;;1.08;;
76894;SDS011;65855;42.030;13.078;2024-02-16T04:20:14;4.93;;;1.45;;
76894;SDS011;65855;42.030;13.078;2024-02-16T04:22:40;3.08;;;1.73;;
76894;SDS011;65855;42.030;13.078;2024-02-16T04:25:05;3.10;;;1.65;;
76894;SDS011;65855;42.030;13.078;2024-02-16T04:27:31;3.33;;;1.33;;
76894;SDS011;65855;42.030;13.078;2024-02-16T04:29:56;2.67;;;0.98;;
76894;SDS011;65855;42.030;13.078;2024-02-16T04:32:22;6.82;;;2.15;;
76894;SDS011;65855;42.030;13.078;2024-02-16T04:34:50;11.60;;;6.57;;
76894;SDS011;65855;42.030;13.078;2024-02-16T04:37:17;11.60;;;2.00;;
76894;SDS011;65855;42.030;13.078;2024-02-16T04:39:44;4.38;;;2.13;;
76894;SDS011;65855;42.030;13.078;2024-02-16T04:42:10;3.85;;;1.35;;
76894;SDS011;65855;42.030;13.078;2024-02-16T04:44:39;3.28;;;1.70;;
76894;SDS011;65855;42.030;13.078;2024-02-16T04:47:05;2.05;;;1.25;;
76894;SDS011;65855;42.030;13.078;2024-02-16T04:49:30;2.08;;;1.27;;
76894;SDS011;65855;42.030;13.078;2024-02-16T04:51:56;3.67;;;1.45;;
76894;SDS011;65855;42.030;13.078;2024-02-16T04:54:21;2.97;;;1.42;;
76894;SDS011;65855;42.030;13.078;2024-02-16T04:56:47;2.72;;;1.38;;
76894;SDS011;65855;42.030;13.078;2024-02-16T04:59:14;3.33;;;1.77;;
76894;SDS011;65855;42.030;13.078;2024-02-16T05:01:39;1.45;;;1.00;;
76894;SDS011;65855;42.030;13.078;2024-02-16T05:04:05;4.63;;;2.05;;
76894;SDS011;65855;42.030;13.078;2024-02-16T05:06:31;1.52;;;0.82;;
76894;SDS011;65855;42.030;13.078;2024-02-16T05:08:57;1.88;;;0.93;;
76894;SDS011;65855;42.030;13.078;2024-02-16T05:11:23;3.75;;;1.83;;
76894;SDS011;65855;42.030;13.078;2024-02-16T05:13:49;4.70;;;2.05;;
76894;SDS011;65855;42.030;13.078;2024-02-16T05:16:15;3.75;;;1.63;;
76894;SDS011;65855;42.030;13.078;2024-02-16T05:18:42;3.78;;;1.88;;
76894;SDS011;65855;42.030;13.078;2024-02-16T05:21:08;3.72;;;1.90;;
76894;SDS011;65855;42.030;13.078;2024-02-16T05:23:34;2.10;;;0.98;;
76894;SDS011;65855;42.030;13.078;2024-02-16T05:26:00;3.13;;;1.85;;
76894;SDS011;65855;42.030;13.078;2024-02-16T05:28:25;3.45;;;1.38;;
76894;SDS011;65855;42.030;13.078;2024-02-16T05:30:51;3.03;;;1.20;;
76894;SDS011;65855;42.030;13.078;2024-02-16T05:33:17;2.97;;;1.33;;
76894;SDS011;65855;42.030;13.078;2024-02-16T05:35:42;2.67;;;1.30;;
76894;SDS011;65855;42.030;13.078;2024-02-16T05:38:09;3.65;;;1.55;;
76894;SDS011;65855;42.030;13.078;2024-02-16T05:40:56;1.98;;;1.02;;
76894;SDS011;65855;42.030;13.078;2024-02-16T05:43:22;2.25;;;1.17;;
76894;SDS011;65855;42.030;13.078;2024-02-16T05:45:48;2.97;;;2.28;;
76894;SDS011;65855;42.030;13.078;2024-02-16T05:48:14;2.15;;;1.23;;
76894;SDS011;65855;42.030;13.078;2024-02-16T05:50:40;4.93;;;1.40;;
76894;SDS011;65855;42.030;13.078;2024-02-16T05:53:06;5.72;;;1.65;;
76894;SDS011;65855;42.030;13.078;2024-02-16T05:55:32;1.98;;;1.17;;
76894;SDS011;65855;42.030;13.078;2024-02-16T05:57:57;3.28;;;2.08;;
76894;SDS011;65855;42.030;13.078;2024-02-16T06:00:23;3.35;;;1.75;;
76894;SDS011;65855;42.030;13.078;2024-02-16T06:02:48;2.83;;;1.55;;
76894;SDS011;65855;42.030;13.078;2024-02-16T06:05:14;1.88;;;1.58;;
76894;SDS011;65855;42.030;13.078;2024-02-16T06:07:39;1.58;;;1.00;;
76894;SDS011;65855;42.030;13.078;2024-02-16T06:10:05;2.53;;;1.70;;
76894;SDS011;65855;42.030;13.078;2024-02-16T06:12:37;1.55;;;0.82;;
76894;SDS011;65855;42.030;13.078;2024-02-16T06:15:03;1.15;;;0.70;;
76894;SDS011;65855;42.030;13.078;2024-02-16T06:17:29;2.42;;;1.55;;
76894;SDS011;65855;42.030;13.078;2024-02-16T06:19:55;5.32;;;2.33;;
76894;SDS011;65855;42.030;13.078;2024-02-16T06:22:20;4.82;;;3.10;;
76894;SDS011;65855;42.030;13.078;2024-02-16T06:24:46;24.67;;;12.63;;
76894;SDS011;65855;42.030;13.078;2024-02-16T06:27:11;12.57;;;6.82;;
76894;SDS011;65855;42.030;13.078;2024-02-16T06:29:37;11.35;;;7.47;;
76894;SDS011;65855;42.030;13.078;2024-02-16T06:32:02;7.65;;;4.95;;
76894;SDS011;65855;42.030;13.078;2024-02-16T06:34:28;5.35;;;3.45;;
76894;SDS011;65855;42.030;13.078;2024-02-16T06:36:54;3.55;;;1.45;;
76894;SDS011;65855;42.030;13.078;2024-02-16T06:39:20;3.75;;;2.28;;
76894;SDS011;65855;42.030;13.078;2024-02-16T06:41:45;6.45;;;3.17;;
76894;SDS011;65855;42.030;13.078;2024-02-16T06:44:12;4.05;;;1.90;;
76894;SDS011;65855;42.030;13.078;2024-02-16T06:46:38;2.60;;;1.40;;
76894;SDS011;65855;42.030;13.078;2024-02-16T06:49:03;4.18;;;1.55;;
76894;SDS011;65855;42.030;13.078;2024-02-16T06:51:29;2.05;;;1.05;;
76894;SDS011;65855;42.030;13.078;2024-02-16T06:53:54;2.85;;;1.55;;
76894;SDS011;65855;42.030;13.078;2024-02-16T06:56:20;3.90;;;1.27;;
76894;SDS011;65855;42.030;13.078;2024-02-16T06:58:46;2.88;;;1.25;;
76894;SDS011;65855;42.030;13.078;2024-02-16T07:01:12;4.20;;;1.38;;
76894;SDS011;65855;42.030;13.078;2024-02-16T07:03:38;3.10;;;1.25;;
76894;SDS011;65855;42.030;13.078;2024-02-16T07:06:04;4.20;;;1.45;;
76894;SDS011;65855;42.030;13.078;2024-02-16T07:08:32;4.07;;;1.45;;
76894;SDS011;65855;42.030;13.078;2024-02-16T07:10:58;3.40;;;1.48;;
76894;SDS011;65855;42.030;13.078;2024-02-16T07:13:23;4.35;;;1.67;;
76894;SDS011;65855;42.030;13.078;2024-02-16T07:15:49;3.13;;;1.30;;
76894;SDS011;65855;42.030;13.078;2024-02-16T07:18:15;4.70;;;1.75;;
76894;SDS011;65855;42.030;13.078;2024-02-16T07:20:41;4.03;;;1.80;;
76894;SDS011;65855;42.030;13.078;2024-02-16T07:23:06;4.13;;;1.83;;
76894;SDS011;65855;42.030;13.078;2024-02-16T07:25:34;4.35;;;2.10;;
76894;SDS011;65855;42.030;13.078;2024-02-16T07:28:00;4.93;;;1.70;;
76894;SDS011;65855;42.030;13.078;2024-02-16T07:30:25;4.15;;;1.40;;
76894;SDS011;65855;42.030;13.078;2024-02-16T07:32:51;5.28;;;2.50;;
76894;SDS011;65855;42.030;13.078;2024-02-16T07:35:17;5.50;;;2.00;;
76894;SDS011;65855;42.030;13.078;2024-02-16T07:37:43;4.72;;;2.05;;
76894;SDS011;65855;42.030;13.078;2024-02-16T07:40:09;7.15;;;2.05;;
76894;SDS011;65855;42.030;13.078;2024-02-16T07:42:38;4.70;;;1.92;;
76894;SDS011;65855;42.030;13.078;2024-02-16T07:45:05;5.80;;;2.33;;
76894;SDS011;65855;42.030;13.078;2024-02-16T07:47:31;7.28;;;3.60;;
76894;SDS011;65855;42.030;13.078;2024-02-16T07:49:57;15.43;;;10.20;;
76894;SDS011;65855;42.030;13.078;2024-02-16T07:52:22;16.48;;;10.35;;
76894;SDS011;65855;42.030;13.078;2024-02-16T07:54:48;14.35;;;7.38;;
76894;SDS011;65855;42.030;13.078;2024-02-16T07:57:14;10.40;;;6.43;;
76894;SDS011;65855;42.030;13.078;2024-02-16T07:59:40;10.25;;;5.95;;
76894;SDS011;65855;42.030;13.078;2024-02-16T08:02:05;10.77;;;5.07;;
76894;SDS011;65855;42.030;13.078;2024-02-16T08:04:32;11.88;;;5.80;;
76894;SDS011;65855;42.030;13.078;2024-02-16T08:06:57;15.35;;;10.88;;
76894;SDS011;65855;42.030;13.078;2024-02-16T08:09:23;8.07;;;5.85;;
76894;SDS011;65855;42.030;13.078;2024-02-16T08:11:48;9.48;;;5.07;;
76894;SDS011;65855;42.030;13.078;2024-02-16T08:14:14;6.90;;;3.58;;
76894;SDS011;65855;42.030;13.078;2024-02-16T08:16:39;8.25;;;3.58;;
76894;SDS011;65855;42.030;13.078;2024-02-16T08:19:04;8.55;;;4.25;;
76894;SDS011;65855;42.030;13.078;2024-02-16T08:21:30;6.03;;;2.28;;
76894;SDS011;65855;42.030;13.078;2024-02-16T08:23:56;7.93;;;3.90;;
76894;SDS011;65855;42.030;13.078;2024-02-16T08:26:21;6.75;;;2.15;;
76894;SDS011;65855;42.030;13.078;2024-02-16T08:28:46;5.72;;;2.08;;
76894;SDS011;65855;42.030;13.078;2024-02-16T08:31:18;5.53;;;1.58;;
76894;SDS011;65855;42.030;13.078;2024-02-16T08:33:44;3.78;;;1.30;;
76894;SDS011;65855;42.030;13.078;2024-02-16T08:36:10;4.57;;;1.25;;
76894;SDS011;65855;42.030;13.078;2024-02-16T08:38:38;8.05;;;4.03;;
76894;SDS011;65855;42.030;13.078;2024-02-16T08:41:04;8.75;;;3.05;;
76894;SDS011;65855;42.030;13.078;2024-02-16T08:43:29;5.82;;;2.00;;
76894;SDS011;65855;42.030;13.078;2024-02-16T08:45:55;4.45;;;1.60;;
76894;SDS011;65855;42.030;13.078;2024-02-16T08:48:21;5.60;;;1.83;;
76894;SDS011;65855;42.030;13.078;2024-02-16T08:50:47;6.20;;;2.50;;
76894;SDS011;65855;42.030;13.078;2024-02-16T08:53:13;5.97;;;1.92;;
76894;SDS011;65855;42.030;13.078;2024-02-16T08:55:39;7.20;;;2.85;;
76894;SDS011;65855;42.030;13.078;2024-02-16T08:58:07;5.82;;;2.13;;
76894;SDS011;65855;42.030;13.078;2024-02-16T09:00:32;6.13;;;2.60;;
76894;SDS011;65855;42.030;13.078;2024-02-16T09:02:58;5.00;;;2.33;;
76894;SDS011;65855;42.030;13.078;2024-02-16T09:05:23;6.22;;;2.17;;
76894;SDS011;65855;42.030;13.078;2024-02-16T09:07:49;5.45;;;2.25;;
76894;SDS011;65855;42.030;13.078;2024-02-16T09:10:14;5.50;;;2.28;;
76894;SDS011;65855;42.030;13.078;2024-02-16T09:12:40;6.03;;;2.38;;
76894;SDS011;65855;42.030;13.078;2024-02-16T09:15:06;7.70;;;2.83;;
76894;SDS011;65855;42.030;13.078;2024-02-16T09:17:31;6.65;;;3.03;;
76894;SDS011;65855;42.030;13.078;2024-02-16T09:19:57;7.90;;;2.78;;
76894;SDS011;65855;42.030;13.078;2024-02-16T09:22:22;8.02;;;3.80;;
76894;SDS011;65855;42.030;13.078;2024-02-16T09:24:48;6.97;;;3.30;;
76894;SDS011;65855;42.030;13.078;2024-02-16T09:27:13;6.57;;;2.22;;
76894;SDS011;65855;42.030;13.078;2024-02-16T09:29:39;6.13;;;2.78;;
76894;SDS011;65855;42.030;13.078;2024-02-16T09:32:05;7.13;;;2.80;;
76894;SDS011;65855;42.030;13.078;2024-02-16T09:34:31;5.65;;;2.78;;
76894;SDS011;65855;42.030;13.078;2024-02-16T09:36:56;5.38;;;1.65;;
76894;SDS011;65855;42.030;13.078;2024-02-16T09:39:22;7.03;;;2.15;;
76894;SDS011;65855;42.030;13.078;2024-02-16T09:41:49;5.55;;;1.80;;
76894;SDS011;65855;42.030;13.078;2024-02-16T09:44:18;5.70;;;1.85;;
76894;SDS011;65855;42.030;13.078;2024-02-16T09:46:45;5.05;;;1.83;;
76894;SDS011;65855;42.030;13.078;2024-02-16T09:49:11;7.10;;;2.15;;
76894;SDS011;65855;42.030;13.078;2024-02-16T09:51:36;6.78;;;2.30;;
76894;SDS011;65855;42.030;13.078;2024-02-16T09:54:03;5.50;;;2.05;;
76894;SDS011;65855;42.030;13.078;2024-02-16T09:56:28;6.05;;;2.60;;
76894;SDS011;65855;42.030;13.078;2024-02-16T09:58:54;5.22;;;2.13;;
76894;SDS011;65855;42.030;13.078;2024-02-16T10:01:23;6.65;;;1.85;;
76894;SDS011;65855;42.030;13.078;2024-02-16T10:03:49;4.90;;;1.45;;
76894;SDS011;65855;42.030;13.078;2024-02-16T10:06:15;6.63;;;1.60;;
76894;SDS011;65855;42.030;13.078;2024-02-16T10:08:51;3.88;;;1.23;;
76894;SDS011;65855;42.030;13.078;2024-02-16T10:11:18;6.43;;;2.10;;
76894;SDS011;65855;42.030;13.078;2024-02-16T10:13:57;5.60;;;2.03;;
76894;SDS011;65855;42.030;13.078;2024-02-16T10:16:23;5.00;;;1.20;;
76894;SDS011;65855;42.030;13.078;2024-02-16T10:18:49;4.38;;;1.13;;
76894;SDS011;65855;42.030;13.078;2024-02-16T10:21:28;4.32;;;1.17;;
76894;SDS011;65855;42.030;13.078;2024-02-16T10:23:57;3.42;;;1.52;;
76894;SDS011;65855;42.030;13.078;2024-02-16T10:26:22;4.03;;;1.05;;
76894;SDS011;65855;42.030;13.078;2024-02-16T10:28:47;3.75;;;1.38;;
76894;SDS011;65855;42.030;13.078;2024-02-16T10:31:18;4.07;;;0.93;;
76894;SDS011;65855;42.030;13.078;2024-02-16T10:33:44;4.57;;;1.23;;
76894;SDS011;65855;42.030;13.078;2024-02-16T10:36:11;3.17;;;0.77;;
76894;SDS011;65855;42.030;13.078;2024-02-16T10:38:37;4.25;;;1.55;;
76894;SDS011;65855;42.030;13.078;2024-02-16T10:41:04;9.85;;;4.90;;
76894;SDS011;65855;42.030;13.078;2024-02-16T10:43:31;5.65;;;2.08;;
76894;SDS011;65855;42.030;13.078;2024-02-16T10:45:56;6.25;;;2.25;;
76894;SDS011;65855;42.030;13.078;2024-02-16T10:48:22;4.13;;;1.40;;
76894;SDS011;65855;42.030;13.078;2024-02-16T10:50:47;9.00;;;2.72;;
76894;SDS011;65855;42.030;13.078;2024-02-16T10:53:33;3.80;;;1.17;;
76894;SDS011;65855;42.030;13.078;2024-02-16T10:56:02;4.05;;;0.95;;
76894;SDS011;65855;42.030;13.078;2024-02-16T10:58:28;3.60;;;1.60;;
76894;SDS011;65855;42.030;13.078;2024-02-16T11:00:55;3.35;;;1.17;;
76894;SDS011;65855;42.030;13.078;2024-02-16T11:03:22;3.00;;;0.95;;
76894;SDS011;65855;42.030;13.078;2024-02-16T11:05:49;3.65;;;0.95;;
76894;SDS011;65855;42.030;13.078;2024-02-16T11:08:16;5.03;;;1.73;;
76894;SDS011;65855;42.030;13.078;2024-02-16T11:10:58;4.25;;;1.40;;
76894;SDS011;65855;42.030;13.078;2024-02-16T11:13:33;5.93;;;1.95;;
76894;SDS011;65855;42.030;13.078;2024-02-16T11:16:03;4.75;;;1.75;;
76894;SDS011;65855;42.030;13.078;2024-02-16T11:18:36;7.57;;;2.70;;
76894;SDS011;65855;42.030;13.078;2024-02-16T11:21:03;6.25;;;2.55;;
76894;SDS011;65855;42.030;13.078;2024-02-16T11:23:31;9.07;;;2.45;;
76894;SDS011;65855;42.030;13.078;2024-02-16T11:26:00;7.65;;;1.95;;
76894;SDS011;65855;42.030;13.078;2024-02-16T11:28:27;4.88;;;1.40;;
76894;SDS011;65855;42.030;13.078;2024-02-16T11:30:53;6.68;;;2.38;;
76894;SDS011;65855;42.030;13.078;2024-02-16T11:33:18;6.63;;;1.77;;
76894;SDS011;65855;42.030;13.078;2024-02-16T11:35:52;4.70;;;1.20;;
76894;SDS011;65855;42.030;13.078;2024-02-16T11:38:18;6.10;;;1.70;;
76894;SDS011;65855;42.030;13.078;2024-02-16T11:40:52;4.63;;;1.48;;
76894;SDS011;65855;42.030;13.078;2024-02-16T11:43:23;5.70;;;1.40;;
76894;SDS011;65855;42.030;13.078;2024-02-16T11:45:50;5.43;;;1.58;;
76894;SDS011;65855;42.030;13.078;2024-02-16T11:48:25;4.72;;;1.63;;
76894;SDS011;65855;42.030;13.078;2024-02-16T11:50:58;6.32;;;2.63;;
76894;SDS011;65855;42.030;13.078;2024-02-16T11:53:25;5.88;;;2.50;;
76894;SDS011;65855;42.030;13.078;2024-02-16T11:55:51;7.25;;;2.53;;
76894;SDS011;65855;42.030;13.078;2024-02-16T11:58:16;7.38;;;2.75;;
76894;SDS011;65855;42.030;13.078;2024-02-16T12:00:46;7.45;;;2.92;;
76894;SDS011;65855;42.030;13.078;2024-02-16T12:03:17;8.52;;;3.15;;
76894;SDS011;65855;42.030;13.078;2024-02-16T12:05:53;6.60;;;2.72;;
76894;SDS011;65855;42.030;13.078;2024-02-16T12:08:20;4.95;;;1.75;;
76894;SDS011;65855;42.030;13.078;2024-02-16T12:10:50;6.90;;;2.47;;
76894;SDS011;65855;42.030;13.078;2024-02-16T12:13:17;5.18;;;1.95;;
76894;SDS011;65855;42.030;13.078;2024-02-16T12:15:44;4.38;;;1.45;;
76894;SDS011;65855;42.030;13.078;2024-02-16T12:18:10;4.90;;;1.48;;
76894;SDS011;65855;42.030;13.078;2024-02-16T12:20:35;4.80;;;1.35;;
76894;SDS011;65855;42.030;13.078;2024-02-16T12:23:10;4.28;;;1.20;;
76894;SDS011;65855;42.030;13.078;2024-02-16T12:25:36;5.82;;;1.88;;
76894;SDS011;65855;42.030;13.078;2024-02-16T12:28:02;7.28;;;2.05;;
76894;SDS011;65855;42.030;13.078;2024-02-16T12:30:28;7.20;;;2.53;;
76894;SDS011;65855;42.030;13.078;2024-02-16T12:32:53;4.70;;;1.52;;
76894;SDS011;65855;42.030;13.078;2024-02-16T12:35:19;6.88;;;1.90;;
76894;SDS011;65855;42.030;13.078;2024-02-16T12:37:45;9.07;;;3.65;;
76894;SDS011;65855;42.030;13.078;2024-02-16T12:40:10;8.52;;;2.67;;
76894;SDS011;65855;42.030;13.078;2024-02-16T12:42:36;10.25;;;3.03;;
76894;SDS011;65855;42.030;13.078;2024-02-16T12:45:03;6.40;;;2.22;;
76894;SDS011;65855;42.030;13.078;2024-02-16T12:47:28;8.10;;;2.05;;
76894;SDS011;65855;42.030;13.078;2024-02-16T12:49:55;6.70;;;2.28;;
76894;SDS011;65855;42.030;13.078;2024-02-16T12:52:22;5.68;;;1.75;;
76894;SDS011;65855;42.030;13.078;2024-02-16T12:54:48;6.13;;;2.28;;
76894;SDS011;65855;42.030;13.078;2024-02-16T12:57:13;7.28;;;2.17;;
76894;SDS011;65855;42.030;13.078;2024-02-16T12:59:39;5.97;;;2.08;;
76894;SDS011;65855;42.030;13.078;2024-02-16T13:02:04;6.75;;;2.13;;
76894;SDS011;65855;42.030;13.078;2024-02-16T13:04:30;5.10;;;1.60;;
76894;SDS011;65855;42.030;13.078;2024-02-16T13:06:57;3.60;;;1.25;;
76894;SDS011;65855;42.030;13.078;2024-02-16T13:09:23;5.63;;;1.55;;
76894;SDS011;65855;42.030;13.078;2024-02-16T13:11:48;5.50;;;1.55;;
76894;SDS011;65855;42.030;13.078;2024-02-16T13:14:19;6.45;;;1.90;;
76894;SDS011;65855;42.030;13.078;2024-02-16T13:16:45;5.20;;;1.70;;
76894;SDS011;65855;42.030;13.078;2024-02-16T13:19:10;4.70;;;1.23;;
76894;SDS011;65855;42.030;13.078;2024-02-16T13:21:36;5.20;;;1.30;;
76894;SDS011;65855;42.030;13.078;2024-02-16T13:24:02;6.40;;;2.35;;
76894;SDS011;65855;42.030;13.078;2024-02-16T13:26:27;7.28;;;2.10;;
76894;SDS011;65855;42.030;13.078;2024-02-16T13:28:53;5.70;;;1.98;;
76894;SDS011;65855;42.030;13.078;2024-02-16T13:31:19;6.40;;;1.73;;
76894;SDS011;65855;42.030;13.078;2024-02-16T13:33:45;6.95;;;2.33;;
76894;SDS011;65855;42.030;13.078;2024-02-16T13:36:10;6.10;;;2.30;;
76894;SDS011;65855;42.030;13.078;2024-02-16T13:38:36;6.82;;;2.88;;
76894;SDS011;65855;42.030;13.078;2024-02-16T13:41:01;6.45;;;2.42;;
76894;SDS011;65855;42.030;13.078;2024-02-16T13:43:27;5.75;;;1.80;;
76894;SDS011;65855;42.030;13.078;2024-02-16T13:45:53;5.30;;;2.00;;
76894;SDS011;65855;42.030;13.078;2024-02-16T13:48:19;5.28;;;1.67;;
76894;SDS011;65855;42.030;13.078;2024-02-16T13:50:46;6.05;;;2.17;;
76894;SDS011;65855;42.030;13.078;2024-02-16T13:53:12;6.70;;;2.22;;
76894;SDS011;65855;42.030;13.078;2024-02-16T13:55:39;7.03;;;2.50;;
76894;SDS011;65855;42.030;13.078;2024-02-16T13:58:05;5.20;;;1.95;;
76894;SDS011;65855;42.030;13.078;2024-02-16T14:00:31;8.32;;;2.70;;
76894;SDS011;65855;42.030;13.078;2024-02-16T14:02:56;7.28;;;2.85;;
76894;SDS011;65855;42.030;13.078;2024-02-16T14:05:22;8.98;;;3.90;;
76894;SDS011;65855;42.030;13.078;2024-02-16T14:07:50;8.75;;;4.38;;
76894;SDS011;65855;42.030;13.078;2024-02-16T14:10:15;8.13;;;3.33;;
76894;SDS011;65855;42.030;13.078;2024-02-16T14:12:41;5.80;;;2.40;;
76894;SDS011;65855;42.030;13.078;2024-02-16T14:15:06;6.15;;;2.17;;
76894;SDS011;65855;42.030;13.078;2024-02-16T14:17:32;5.85;;;2.10;;
76894;SDS011;65855;42.030;13.078;2024-02-16T14:19:58;6.47;;;2.17;;
76894;SDS011;65855;42.030;13.078;2024-02-16T14:22:23;5.28;;;1.80;;
76894;SDS011;65855;42.030;13.078;2024-02-16T14:24:49;5.50;;;2.17;;
76894;SDS011;65855;42.030;13.078;2024-02-16T14:27:14;7.95;;;2.53;;
76894;SDS011;65855;42.030;13.078;2024-02-16T14:29:41;6.57;;;2.38;;